Time;durP1;ratioP1;P1;durP2;ratioP2;P2;SDS_P1;SDS_P2;PMS_P1;PMS_P2;Temp;Humidity;BMP_temperature;BMP_pressure;BME280_temperature;BME280_humidity;BME280_pressure;Samples;Min_cycle;Max_cycle;Signal;HPM_P1;HPM_P2
2024/01/22 00:00:25;;;;;;;5.15;3.25;;;6.80;99.90;;;;;;4861346;29;20068;-77
2024/01/22 00:02:51;;;;;;;7.38;3.40;;;6.90;99.90;;;;;;4893926;29;20113;-77
2024/01/22 00:05:16;;;;;;;10.45;5.65;;;6.90;99.90;;;;;;4868641;29;20051;-77
2024/01/22 00:07:42;;;;;;;9.15;3.38;;;6.90;99.90;;;;;;4853551;29;20387;-77
2024/01/22 00:10:08;;;;;;;10.00;6.05;;;7.00;99.90;;;;;;4884608;29;20489;-77
2024/01/22 00:12:35;;;;;;;10.68;5.82;;;7.00;99.90;;;;;;4871989;29;20090;-77
2024/01/22 00:15:01;;;;;;;8.57;3.83;;;7.00;99.90;;;;;;4860066;29;20056;-77
2024/01/22 00:17:26;;;;;;;10.35;5.82;;;7.00;99.90;;;;;;4899080;29;20533;-77
2024/01/22 00:19:52;;;;;;;10.95;5.40;;;7.10;99.90;;;;;;4854036;29;20584;-77
2024/01/22 00:22:18;;;;;;;11.02;3.70;;;7.10;99.90;;;;;;4864907;29;20040;-77
2024/01/22 00:24:43;;;;;;;6.93;3.28;;;7.10;99.90;;;;;;4881515;29;20136;-77
2024/01/22 00:27:09;;;;;;;9.00;5.25;;;7.10;99.90;;;;;;4848755;29;20498;-77
2024/01/22 00:29:35;;;;;;;5.43;3.42;;;7.10;99.90;;;;;;4865008;29;20048;-77
2024/01/22 00:32:01;;;;;;;8.25;4.97;;;7.20;99.90;;;;;;4875913;29;20060;-77
2024/01/22 00:34:27;;;;;;;7.00;3.30;;;7.20;99.90;;;;;;4855167;29;20457;-77
2024/01/22 00:36:52;;;;;;;9.40;4.95;;;7.20;99.90;;;;;;4889636;29;20565;-77
2024/01/22 00:39:18;;;;;;;9.38;4.75;;;7.20;99.90;;;;;;4880958;29;20497;-77
2024/01/22 00:41:43;;;;;;;6.15;2.90;;;7.30;99.90;;;;;;4858097;29;20057;-77
2024/01/22 00:44:09;;;;;;;6.70;3.13;;;7.30;99.90;;;;;;4881448;29;20111;-76
2024/01/22 00:46:35;;;;;;;7.05;2.88;;;7.30;99.90;;;;;;4890389;29;20045;-77
2024/01/22 00:49:00;;;;;;;7.18;3.10;;;7.30;99.90;;;;;;4883792;29;20052;-77
2024/01/22 00:51:26;;;;;;;8.30;4.78;;;7.30;99.90;;;;;;4853623;29;20052;-77
2024/01/22 00:53:51;;;;;;;8.45;4.85;;;7.30;99.90;;;;;;4853127;29;20470;-77
2024/01/22 00:56:17;;;;;;;8.60;5.00;;;7.30;99.90;;;;;;4893772;29;20091;-77
2024/01/22 00:58:43;;;;;;;8.95;4.90;;;7.40;99.90;;;;;;4858488;29;20504;-77
2024/01/22 01:01:08;;;;;;;6.28;3.15;;;7.40;99.90;;;;;;4888029;29;20078;-77
2024/01/22 01:03:34;;;;;;;8.80;2.92;;;7.40;99.90;;;;;;4858201;29;20262;-77
2024/01/22 01:06:00;;;;;;;7.13;3.05;;;7.40;99.90;;;;;;4859883;29;20044;-77
2024/01/22 01:08:25;;;;;;;8.80;4.65;;;7.40;99.90;;;;;;4861373;29;20049;-77
2024/01/22 01:10:51;;;;;;;8.13;4.45;;;7.50;99.90;;;;;;4883955;29;20108;-77
2024/01/22 01:13:18;;;;;;;6.90;4.50;;;7.50;99.90;;;;;;4861299;29;20450;-77
2024/01/22 01:15:44;;;;;;;8.70;4.32;;;7.60;99.90;;;;;;4878661;29;20523;-78
2024/01/22 01:18:12;;;;;;;7.07;4.50;;;7.60;99.90;;;;;;4861886;29;20057;-78
2024/01/22 01:20:37;;;;;;;4.65;2.67;;;7.70;99.90;;;;;;4864260;29;20147;-78
2024/01/22 01:23:03;;;;;;;7.82;4.50;;;7.70;99.90;;;;;;4863391;29;20044;-77
2024/01/22 01:25:29;;;;;;;8.35;4.60;;;7.70;99.90;;;;;;4878834;29;20413;-77
2024/01/22 01:27:55;;;;;;;7.32;4.60;;;7.70;99.90;;;;;;4850978;29;20048;-77
2024/01/22 01:30:20;;;;;;;5.88;4.05;;;7.80;99.90;;;;;;4878673;29;20053;-77
2024/01/22 01:32:46;;;;;;;6.07;3.40;;;7.80;99.90;;;;;;4881836;29;20049;-77
2024/01/22 01:35:12;;;;;;;8.18;4.72;;;7.80;99.90;;;;;;4870401;29;20053;-78
2024/01/22 01:37:37;;;;;;;4.97;2.92;;;7.80;99.90;;;;;;4860080;29;20387;-78
2024/01/22 01:40:04;;;;;;;6.05;4.03;;;7.90;99.90;;;;;;4888516;29;20131;-78
2024/01/22 01:42:29;;;;;;;7.80;4.30;;;7.90;99.90;;;;;;4852092;29;20063;-77
2024/01/22 01:44:55;;;;;;;7.82;4.00;;;7.90;99.90;;;;;;4882125;29;20120;-77
2024/01/22 01:47:21;;;;;;;6.45;2.88;;;8.00;99.90;;;;;;4874184;29;20037;-77
2024/01/22 01:49:47;;;;;;;7.07;4.15;;;8.10;99.90;;;;;;4849813;29;20072;-77
2024/01/22 01:52:14;;;;;;;7.45;4.57;;;8.00;99.90;;;;;;4879194;29;20486;-78
2024/01/22 01:54:42;;;;;;;7.13;3.95;;;8.00;99.90;;;;;;4876929;29;20084;-78
2024/01/22 01:57:08;;;;;;;9.60;4.57;;;8.10;99.90;;;;;;4880974;29;20113;-77
2024/01/22 01:59:42;;;;;;;8.27;4.32;;;8.10;99.90;;;;;;4853503;29;20053;-77
2024/01/22 02:02:08;;;;;;;7.93;4.45;;;8.10;99.90;;;;;;4872663;29;20128;-78
2024/01/22 02:04:33;;;;;;;10.38;2.90;;;8.20;99.90;;;;;;4876681;29;20127;-77
2024/01/22 02:07:00;;;;;;;8.40;4.60;;;8.10;99.90;;;;;;4889740;29;20049;-78
2024/01/22 02:09:46;;;;;;;10.30;4.70;;;8.10;99.90;;;;;;4877722;29;20041;-78
2024/01/22 02:12:11;;;;;;;5.93;2.65;;;8.20;99.90;;;;;;4865571;29;20140;-78
2024/01/22 02:14:37;;;;;;;7.07;4.35;;;8.10;99.90;;;;;;4870374;29;20069;-77
2024/01/22 02:17:02;;;;;;;7.20;4.25;;;8.10;99.90;;;;;;4885575;29;20080;-78
2024/01/22 02:19:28;;;;;;;6.85;3.10;;;8.10;99.90;;;;;;4861340;29;20069;-77
2024/01/22 02:21:54;;;;;;;6.30;3.28;;;8.10;99.90;;;;;;4865056;29;20081;-77
2024/01/22 02:24:19;;;;;;;8.90;4.60;;;8.10;99.90;;;;;;4909177;29;20136;-78
2024/01/22 02:26:45;;;;;;;9.35;5.20;;;8.20;99.90;;;;;;4881452;29;20053;-77
2024/01/22 02:29:10;;;;;;;10.63;5.10;;;8.20;99.90;;;;;;4889292;29;20048;-77
2024/01/22 02:31:36;;;;;;;7.32;4.47;;;8.20;99.90;;;;;;4879900;29;20421;-77
2024/01/22 02:34:01;;;;;;;7.75;4.60;;;8.20;99.90;;;;;;4869553;29;20052;-77
2024/01/22 02:36:27;;;;;;;7.03;4.72;;;8.10;99.90;;;;;;4880307;29;20081;-78
2024/01/22 02:38:53;;;;;;;6.90;5.00;;;8.20;99.90;;;;;;4871711;29;20132;-77
2024/01/22 02:41:18;;;;;;;5.78;2.78;;;8.20;99.90;;;;;;4877619;29;20120;-77
2024/01/22 02:43:44;;;;;;;8.00;4.65;;;8.10;99.90;;;;;;4879757;29;20084;-77
2024/01/22 02:46:10;;;;;;;6.05;4.40;;;8.20;99.90;;;;;;4855497;29;20042;-77
2024/01/22 02:48:35;;;;;;;7.88;4.30;;;8.20;99.90;;;;;;4852620;29;20045;-77
2024/01/22 02:51:01;;;;;;;6.10;2.72;;;8.30;99.90;;;;;;4879312;29;20223;-77
2024/01/22 02:53:27;;;;;;;8.45;4.45;;;8.20;99.90;;;;;;4853818;29;20050;-77
2024/01/22 02:55:53;;;;;;;6.43;4.07;;;8.30;99.90;;;;;;4858586;29;20049;-77
2024/01/22 02:58:18;;;;;;;7.35;3.92;;;8.20;99.90;;;;;;4868401;29;20120;-77
2024/01/22 03:00:44;;;;;;;7.22;4.03;;;8.20;99.90;;;;;;4844216;29;20059;-78
2024/01/22 03:03:09;;;;;;;6.45;4.35;;;8.30;99.90;;;;;;4866340;29;20047;-77
2024/01/22 03:05:35;;;;;;;7.18;4.10;;;8.20;99.90;;;;;;4852993;29;20071;-77
2024/01/22 03:08:00;;;;;;;6.60;4.07;;;8.30;99.90;;;;;;4860551;29;20049;-77
2024/01/22 03:10:26;;;;;;;6.40;4.30;;;8.30;99.90;;;;;;4866559;29;20045;-77
2024/01/22 03:12:52;;;;;;;7.57;2.83;;;8.30;99.90;;;;;;4844712;29;20613;-77
2024/01/22 03:15:17;;;;;;;7.68;4.10;;;8.30;99.90;;;;;;4869750;29;20128;-77
2024/01/22 03:17:43;;;;;;;7.97;4.72;;;8.30;99.90;;;;;;4858387;29;20075;-77
2024/01/22 03:20:10;;;;;;;5.05;2.53;;;8.40;99.90;;;;;;4870259;29;20045;-77
2024/01/22 03:22:35;;;;;;;7.55;4.28;;;8.30;99.90;;;;;;4876140;29;20053;-77
2024/01/22 03:25:01;;;;;;;7.50;3.95;;;8.30;99.90;;;;;;4859765;29;20173;-77
2024/01/22 03:27:27;;;;;;;8.15;4.53;;;8.30;99.90;;;;;;4856487;29;20509;-77
2024/01/22 03:29:52;;;;;;;8.60;4.40;;;8.30;99.90;;;;;;4878666;29;20433;-77
2024/01/22 03:32:18;;;;;;;8.27;2.72;;;8.30;99.90;;;;;;4855704;29;20158;-78
2024/01/22 03:34:44;;;;;;;7.85;4.10;;;8.30;99.90;;;;;;4852313;29;20468;-77
2024/01/22 03:37:10;;;;;;;6.20;3.90;;;8.30;99.90;;;;;;4876926;29;20044;-77
2024/01/22 03:39:35;;;;;;;6.18;2.70;;;8.40;99.90;;;;;;4860607;29;20057;-77
2024/01/22 03:42:02;;;;;;;8.57;4.53;;;8.30;99.90;;;;;;4857833;29;20064;-77
2024/01/22 03:44:27;;;;;;;6.75;4.10;;;8.30;99.90;;;;;;4875195;29;20149;-78
2024/01/22 03:46:53;;;;;;;5.93;3.88;;;8.40;99.90;;;;;;4841372;29;20711;-78
2024/01/22 03:49:18;;;;;;;7.97;4.50;;;8.30;99.90;;;;;;4872143;29;20478;-78
2024/01/22 03:51:44;;;;;;;3.33;2.10;;;8.40;99.90;;;;;;4854709;29;20566;-77
2024/01/22 03:54:10;;;;;;;5.70;4.10;;;8.30;99.90;;;;;;4838473;29;20053;-77
2024/01/22 03:56:35;;;;;;;6.78;4.20;;;8.30;99.90;;;;;;4855803;29;20038;-77
2024/01/22 03:59:01;;;;;;;4.00;2.20;;;8.30;99.90;;;;;;4851580;29;20033;-77
2024/01/22 04:01:27;;;;;;;7.00;3.85;;;8.40;99.90;;;;;;4878162;29;20080;-77
2024/01/22 04:03:53;;;;;;;4.30;2.38;;;8.30;99.90;;;;;;4845413;29;20053;-77
2024/01/22 04:06:19;;;;;;;5.32;3.60;;;8.40;99.90;;;;;;4848853;29;20053;-78
2024/01/22 04:08:45;;;;;;;6.28;3.90;;;8.40;99.90;;;;;;4862497;29;20064;-78
2024/01/22 04:11:10;;;;;;;8.02;4.05;;;8.50;99.90;;;;;;4852006;29;20208;-78
2024/01/22 04:13:43;;;;;;;7.53;4.40;;;8.50;99.90;;;;;;4853454;29;20116;-78
2024/01/22 04:16:12;;;;;;;6.13;3.83;;;8.50;99.90;;;;;;4856775;29;20033;-78
2024/01/22 04:18:40;;;;;;;6.07;3.75;;;8.40;99.90;;;;;;4857302;29;20053;-78
2024/01/22 04:21:05;;;;;;;6.10;4.20;;;8.50;99.90;;;;;;4861046;29;20044;-78
2024/01/22 04:23:33;;;;;;;6.70;4.30;;;8.50;99.90;;;;;;4842330;29;20056;-77
2024/01/22 04:25:58;;;;;;;6.05;3.80;;;8.60;99.90;;;;;;4850619;29;20049;-78
2024/01/22 04:28:24;;;;;;;5.22;2.25;;;8.60;99.90;;;;;;4867164;29;20209;-78
2024/01/22 04:30:50;;;;;;;5.53;2.10;;;8.60;99.90;;;;;;4856338;29;20057;-78
2024/01/22 04:33:15;;;;;;;7.47;3.80;;;8.50;99.90;;;;;;4853604;29;20044;-77
2024/01/22 04:35:41;;;;;;;4.25;3.67;;;8.50;99.90;;;;;;4853647;29;20045;-77
2024/01/22 04:38:07;;;;;;;6.20;3.55;;;8.60;99.90;;;;;;4841997;29;20077;-77
2024/01/22 04:40:32;;;;;;;2.70;1.92;;;8.60;99.90;;;;;;4839928;29;20062;-78
2024/01/22 04:42:58;;;;;;;7.10;3.88;;;8.60;99.90;;;;;;4839094;29;20123;-78
2024/01/22 04:45:24;;;;;;;6.70;3.85;;;8.60;99.90;;;;;;4848074;29;20634;-77
2024/01/22 04:47:49;;;;;;;5.32;3.80;;;8.70;99.90;;;;;;4843620;29;20060;-78
2024/01/22 04:50:15;;;;;;;5.38;4.22;;;8.70;99.90;;;;;;4846720;29;20491;-77
2024/01/22 04:52:40;;;;;;;5.53;2.15;;;8.70;99.90;;;;;;4848819;29;20535;-78
2024/01/22 04:55:06;;;;;;;5.13;3.78;;;8.70;99.90;;;;;;4845249;29;20049;-78
2024/01/22 04:57:32;;;;;;;4.60;2.40;;;8.70;99.90;;;;;;4845815;29;20098;-77
2024/01/22 04:59:58;;;;;;;4.88;3.30;;;8.70;99.90;;;;;;4845465;29;20113;-78
2024/01/22 05:02:27;;;;;;;4.60;3.42;;;8.60;99.90;;;;;;4837334;29;20052;-78
2024/01/22 05:04:59;;;;;;;3.47;3.15;;;8.80;99.90;;;;;;4837182;29;20068;-77
2024/01/22 05:07:25;;;;;;;4.07;3.03;;;8.80;99.90;;;;;;4842006;29;20045;-77
2024/01/22 05:09:58;;;;;;;5.07;3.20;;;8.80;99.90;;;;;;4856531;29;20045;-78
2024/01/22 05:12:24;;;;;;;5.10;3.33;;;8.80;99.90;;;;;;4860418;29;20098;-77
2024/01/22 05:14:51;;;;;;;3.97;3.30;;;8.90;99.90;;;;;;4836696;29;20045;-75
2024/01/22 05:17:16;;;;;;;5.15;3.50;;;8.90;99.90;;;;;;4846585;29;20391;-76
2024/01/22 05:19:42;;;;;;;4.75;3.63;;;8.90;99.90;;;;;;4849382;29;20106;-76
2024/01/22 05:22:08;;;;;;;2.75;1.85;;;9.00;99.90;;;;;;4845892;29;20167;-75
2024/01/22 05:24:34;;;;;;;4.63;3.30;;;9.00;99.90;;;;;;4842193;29;20045;-75
2024/01/22 05:26:59;;;;;;;3.60;2.72;;;9.00;99.90;;;;;;4876367;29;20049;-77
2024/01/22 05:29:25;;;;;;;3.05;2.60;;;9.00;99.90;;;;;;4850255;29;20064;-77
2024/01/22 05:31:51;;;;;;;3.38;1.80;;;9.00;99.90;;;;;;4834214;29;20038;-77
2024/01/22 05:34:16;;;;;;;4.13;2.80;;;9.10;99.90;;;;;;4851402;29;20108;-77
2024/01/22 05:36:43;;;;;;;4.53;2.88;;;9.10;99.90;;;;;;4847459;29;20429;-77
2024/01/22 05:39:08;;;;;;;2.80;2.50;;;9.20;99.90;;;;;;4848976;29;20073;-77
2024/01/22 05:41:35;;;;;;;3.35;1.77;;;9.20;99.90;;;;;;4856889;29;20049;-78
2024/01/22 05:44:00;;;;;;;4.13;2.65;;;9.20;99.90;;;;;;4856278;29;20049;-78
2024/01/22 05:46:27;;;;;;;3.45;2.42;;;9.20;99.90;;;;;;4852588;29;20050;-78
2024/01/22 05:48:53;;;;;;;3.17;2.60;;;9.20;99.90;;;;;;4853508;29;20108;-77
2024/01/22 05:51:20;;;;;;;2.50;1.75;;;9.30;99.90;;;;;;4855153;29;20053;-78
2024/01/22 05:53:46;;;;;;;3.50;2.50;;;9.30;99.90;;;;;;4851290;29;20061;-77
2024/01/22 05:56:25;;;;;;;3.40;2.42;;;9.30;99.90;;;;;;4850659;29;20068;-77
2024/01/22 05:58:56;;;;;;;3.83;2.50;;;9.40;99.90;;;;;;4857449;29;20076;-78
2024/01/22 06:01:22;;;;;;;2.97;2.28;;;9.50;99.90;;;;;;4885995;29;20099;-78
2024/01/22 06:03:48;;;;;;;2.72;2.40;;;9.50;99.90;;;;;;4851395;29;20076;-77
2024/01/22 06:06:14;;;;;;;2.83;2.53;;;9.50;99.90;;;;;;4885056;29;21884;-78
2024/01/22 06:08:41;;;;;;;3.92;2.30;;;9.50;99.90;;;;;;4853749;29;20453;-77
2024/01/22 06:11:07;;;;;;;3.08;2.35;;;9.60;99.90;;;;;;4854509;29;20050;-77
2024/01/22 06:13:38;;;;;;;3.53;2.33;;;9.60;99.90;;;;;;4861026;29;20077;-77
2024/01/22 06:16:06;;;;;;;4.22;2.60;;;9.60;99.90;;;;;;4846633;29;20052;-77
2024/01/22 06:18:32;;;;;;;3.95;2.33;;;9.60;99.90;;;;;;4856030;29;20057;-77
2024/01/22 06:20:57;;;;;;;3.33;2.50;;;9.60;99.90;;;;;;4844773;29;20045;-77
2024/01/22 06:23:23;;;;;;;3.72;2.40;;;9.60;99.90;;;;;;4871433;29;20595;-77
2024/01/22 06:25:48;;;;;;;3.38;2.47;;;9.70;99.90;;;;;;4850421;29;20057;-77
2024/01/22 06:28:14;;;;;;;4.63;2.85;;;9.70;99.90;;;;;;4849766;29;20052;-78
2024/01/22 06:30:40;;;;;;;4.55;2.70;;;9.70;99.90;;;;;;4849707;29;20049;-78
2024/01/22 06:33:06;;;;;;;5.57;2.50;;;9.80;99.90;;;;;;4841836;29;20050;-77
2024/01/22 06:35:31;;;;;;;4.50;2.33;;;9.70;99.90;;;;;;4850405;29;20475;-77
2024/01/22 06:37:57;;;;;;;4.88;2.60;;;9.80;99.90;;;;;;4856302;29;20239;-77
2024/01/22 06:40:22;;;;;;;4.45;2.90;;;9.80;99.90;;;;;;4877351;29;20513;-77
2024/01/22 06:42:48;;;;;;;4.15;2.72;;;9.70;99.90;;;;;;4868527;29;20528;-77
2024/01/22 06:45:14;;;;;;;5.10;2.78;;;9.70;99.90;;;;;;4870037;29;20041;-77
2024/01/22 06:47:40;;;;;;;4.00;2.50;;;9.80;99.90;;;;;;4878452;29;20044;-77
2024/01/22 06:50:06;;;;;;;4.32;2.97;;;9.70;99.90;;;;;;4864180;29;20046;-77
2024/01/22 06:52:32;;;;;;;3.75;2.72;;;9.80;99.90;;;;;;4872645;29;20093;-77
2024/01/22 06:54:58;;;;;;;4.45;3.00;;;9.80;99.90;;;;;;4862119;29;20041;-77
2024/01/22 06:57:23;;;;;;;6.70;3.35;;;9.80;99.90;;;;;;4879184;29;20104;-81
2024/01/22 06:59:49;;;;;;;4.82;3.50;;;9.80;99.90;;;;;;4886546;29;20128;-79
2024/01/22 07:02:15;;;;;;;6.63;3.70;;;9.80;99.90;;;;;;4854039;29;20140;-78
2024/01/22 07:04:40;;;;;;;5.90;3.45;;;9.80;99.90;;;;;;4854593;29;20045;-77
2024/01/22 07:07:06;;;;;;;5.72;3.60;;;9.80;99.90;;;;;;4864950;29;20073;-78
2024/01/22 07:09:32;;;;;;;6.10;3.70;;;9.80;99.90;;;;;;4886994;29;20056;-77
2024/01/22 07:11:58;;;;;;;7.30;4.60;;;9.90;99.90;;;;;;4857539;29;20049;-78
2024/01/22 07:14:23;;;;;;;9.70;4.25;;;9.90;99.90;;;;;;4876811;29;20825;-81
2024/01/22 07:16:49;;;;;;;6.10;3.67;;;9.90;99.90;;;;;;4863932;29;20052;-77
2024/01/22 07:19:15;;;;;;;8.90;3.92;;;9.90;99.90;;;;;;4886470;29;20056;-78
2024/01/22 07:21:40;;;;;;;8.20;4.20;;;9.90;99.90;;;;;;4856728;29;20044;-77
2024/01/22 07:24:06;;;;;;;6.25;4.40;;;9.90;99.90;;;;;;4872992;29;20041;-78
2024/01/22 07:26:32;;;;;;;7.43;2.83;;;9.90;99.90;;;;;;4854853;29;20078;-78
2024/01/22 07:28:58;;;;;;;7.97;3.33;;;9.90;99.90;;;;;;4854011;29;20489;-78
2024/01/22 07:31:23;;;;;;;6.70;3.83;;;9.90;99.90;;;;;;4893965;29;20128;-79
2024/01/22 07:33:49;;;;;;;7.80;4.20;;;9.90;99.90;;;;;;4875620;29;20631;-78
2024/01/22 07:36:16;;;;;;;9.75;4.40;;;9.90;99.90;;;;;;4857535;29;20048;-77
2024/01/22 07:38:42;;;;;;;7.53;2.80;;;10.00;99.90;;;;;;4879854;29;20508;-78
2024/01/22 07:41:08;;;;;;;10.45;2.60;;;10.00;99.90;;;;;;4882932;29;20075;-78
2024/01/22 07:43:34;;;;;;;8.13;2.55;;;10.10;99.90;;;;;;4869473;29;20053;-78
2024/01/22 07:45:59;;;;;;;9.65;3.15;;;10.10;99.90;;;;;;4878761;29;20052;-78
2024/01/22 07:48:25;;;;;;;13.10;3.28;;;10.10;99.90;;;;;;4853256;29;20088;-78
2024/01/22 07:50:52;;;;;;;12.43;3.28;;;10.20;99.90;;;;;;4857217;29;20748;-79
2024/01/22 07:53:17;;;;;;;15.25;3.63;;;10.30;99.90;;;;;;4863366;29;20054;-78
2024/01/22 07:55:43;;;;;;;15.98;3.72;;;10.40;99.90;;;;;;4859332;29;20538;-77
2024/01/22 07:58:09;;;;;;;15.45;3.63;;;10.40;99.90;;;;;;4882490;29;20087;-79
2024/01/22 08:00:35;;;;;;;14.43;4.13;;;10.40;99.90;;;;;;4858365;29;20045;-77
2024/01/22 08:03:01;;;;;;;16.67;6.28;;;10.40;99.90;;;;;;4879595;29;20048;-78
2024/01/22 08:05:28;;;;;;;14.07;4.25;;;10.50;99.90;;;;;;4864832;29;20045;-78
2024/01/22 08:07:53;;;;;;;12.80;3.83;;;10.50;99.90;;;;;;4855709;29;20439;-77
2024/01/22 08:10:19;;;;;;;16.05;4.15;;;10.50;99.90;;;;;;4872974;29;20093;-78
2024/01/22 08:12:44;;;;;;;12.23;3.45;;;10.50;99.90;;;;;;4878021;29;20049;-78
2024/01/22 08:15:14;;;;;;;12.43;3.75;;;10.50;99.90;;;;;;4899155;29;20089;-79
2024/01/22 08:17:42;;;;;;;12.77;3.45;;;10.50;99.90;;;;;;4876632;29;20040;-78
2024/01/22 08:20:08;;;;;;;;;;;10.50;99.90;;;;;;4871880;29;20048;-77
2024/01/22 08:22:33;;;;;;;15.18;3.72;;;10.50;99.90;;;;;;4860551;29;20594;-77
2024/01/22 08:24:59;;;;;;;15.63;4.72;;;10.40;99.90;;;;;;4853152;29;20063;-76
2024/01/22 08:27:25;;;;;;;12.57;3.30;;;10.40;99.90;;;;;;4870016;29;20042;-82
2024/01/22 08:29:50;;;;;;;12.02;4.07;;;10.40;99.90;;;;;;4856539;29;20112;-79
2024/01/22 08:32:16;;;;;;;12.38;3.80;;;10.40;99.90;;;;;;4868034;29;20603;-85
2024/01/22 08:34:42;;;;;;;11.85;3.20;;;10.40;99.90;;;;;;4849610;29;20443;-80
2024/01/22 08:37:08;;;;;;;12.55;3.55;;;10.30;99.90;;;;;;4872325;29;20055;-82
2024/01/22 08:39:33;;;;;;;10.38;3.35;;;10.40;99.90;;;;;;4868038;29;20064;-81
2024/01/22 08:41:59;;;;;;;13.02;3.63;;;10.40;99.90;;;;;;4865843;29;20410;-82
2024/01/22 08:44:25;;;;;;;10.35;3.58;;;10.40;99.90;;;;;;4872313;29;20049;-80
2024/01/22 08:46:50;;;;;;;12.80;3.30;;;10.40;99.90;;;;;;4869126;29;20124;-81
2024/01/22 08:49:16;;;;;;;9.50;3.38;;;10.40;99.90;;;;;;4858395;29;20547;-81
2024/01/22 08:51:42;;;;;;;12.88;3.40;;;10.40;99.90;;;;;;4852791;29;20664;-81
2024/01/22 08:54:08;;;;;;;8.32;3.42;;;10.40;99.90;;;;;;4856806;29;20053;-79
2024/01/22 08:56:34;;;;;;;11.30;3.88;;;10.40;99.90;;;;;;4846313;29;20040;-78
2024/01/22 08:59:00;;;;;;;10.07;3.70;;;10.40;99.90;;;;;;4873627;29;20059;-79
2024/01/22 09:01:26;;;;;;;13.52;4.60;;;10.40;99.90;;;;;;4871890;29;20506;-79
2024/01/22 09:03:52;;;;;;;11.05;4.00;;;10.40;99.90;;;;;;4865353;29;20108;-79
2024/01/22 09:06:17;;;;;;;14.25;4.30;;;10.40;99.90;;;;;;4840291;29;20042;-80
2024/01/22 09:08:43;;;;;;;10.73;4.20;;;10.40;99.90;;;;;;4856587;29;20041;-80
2024/01/22 09:11:09;;;;;;;14.50;4.47;;;10.40;99.90;;;;;;4870378;29;20192;-80
2024/01/22 09:13:37;;;;;;;15.77;5.15;;;10.40;99.90;;;;;;4842562;29;20124;-80
2024/01/22 09:16:02;;;;;;;14.85;4.43;;;10.40;99.90;;;;;;4874872;29;20213;-81
2024/01/22 09:18:28;;;;;;;14.55;4.63;;;10.40;99.90;;;;;;4869096;29;20069;-79
2024/01/22 09:20:55;;;;;;;17.75;5.35;;;10.40;99.90;;;;;;4853007;29;20061;-81
2024/01/22 09:23:21;;;;;;;16.15;5.43;;;10.40;99.90;;;;;;4863358;29;20070;-80
2024/01/22 09:25:47;;;;;;;18.10;4.70;;;10.40;99.90;;;;;;4865337;29;20401;-79
2024/01/22 09:28:14;;;;;;;11.98;4.05;;;10.40;99.90;;;;;;4871390;29;20101;-79
2024/01/22 09:30:41;;;;;;;12.47;4.10;;;10.40;99.90;;;;;;4863092;29;20060;-77
2024/01/22 09:33:06;;;;;;;8.95;2.85;;;10.30;99.90;;;;;;4848382;29;20290;-77
2024/01/22 09:35:32;;;;;;;10.82;2.88;;;10.40;99.90;;;;;;4861061;29;20090;-77
2024/01/22 09:37:58;;;;;;;10.50;2.80;;;10.40;99.90;;;;;;4851957;29;20397;-77
2024/01/22 09:40:30;;;;;;;9.10;2.92;;;10.30;99.90;;;;;;4858906;29;20144;-77
2024/01/22 09:42:58;;;;;;;13.95;3.75;;;10.40;99.90;;;;;;4854094;29;20049;-78
2024/01/22 09:45:24;;;;;;;17.20;4.63;;;10.40;99.90;;;;;;4858296;29;20053;-77
2024/01/22 09:47:50;;;;;;;18.42;4.60;;;10.40;99.90;;;;;;4874709;29;20049;-76
2024/01/22 09:50:16;;;;;;;17.63;4.72;;;10.40;99.90;;;;;;4885811;29;20045;-76
2024/01/22 09:52:46;;;;;;;20.98;5.07;;;10.50;99.90;;;;;;4885216;29;20055;-76
2024/01/22 09:55:13;;;;;;;21.88;5.65;;;10.50;99.90;;;;;;4854369;29;20113;-78
2024/01/22 09:57:43;;;;;;;22.83;6.28;;;10.50;99.90;;;;;;4867609;29;20046;-77
2024/01/22 10:00:12;;;;;;;23.95;6.40;;;10.50;99.90;;;;;;4865871;29;20091;-82
2024/01/22 10:02:40;;;;;;;27.92;5.85;;;10.50;99.90;;;;;;4850191;29;20038;-77
2024/01/22 10:05:07;;;;;;;28.35;6.25;;;10.50;99.90;;;;;;4875886;29;20045;-78
2024/01/22 10:07:33;;;;;;;24.95;5.90;;;10.50;99.90;;;;;;4858451;29;20072;-79
2024/01/22 10:09:59;;;;;;;25.60;6.25;;;10.50;99.90;;;;;;4869524;29;20434;-80
2024/01/22 10:12:25;;;;;;;27.33;7.07;;;10.50;99.90;;;;;;4844706;29;20593;-80
2024/01/22 10:14:51;;;;;;;34.03;8.13;;;10.50;99.90;;;;;;4871831;29;20084;-76
2024/01/22 10:17:18;;;;;;;25.35;6.95;;;10.60;99.90;;;;;;4870560;29;20252;-79
2024/01/22 10:19:48;;;;;;;34.42;7.60;;;10.60;99.90;;;;;;4873265;29;20059;-79
2024/01/22 10:22:19;;;;;;;33.38;7.32;;;10.60;99.90;;;;;;4852627;29;20061;-80
2024/01/22 10:25:00;;;;;;;33.42;8.15;;;10.60;99.90;;;;;;4840264;29;20049;-80
2024/01/22 10:27:26;;;;;;;35.95;8.50;;;10.60;99.90;;;;;;4858940;29;20494;-77
2024/01/22 10:30:06;;;;;;;30.95;8.05;;;10.60;99.90;;;;;;4852893;29;20156;-77
2024/01/22 10:32:32;;;;;;;36.95;8.80;;;10.60;99.90;;;;;;4850312;29;20059;-77
2024/01/22 10:34:58;;;;;;;39.72;9.73;;;10.60;99.90;;;;;;4852189;29;20497;-77
2024/01/22 10:37:23;;;;;;;37.65;8.65;;;10.60;99.90;;;;;;4852606;29;20136;-75
2024/01/22 10:40:09;;;;;;;38.83;8.52;;;10.60;99.90;;;;;;4848430;29;20061;-77
2024/01/22 10:42:35;;;;;;;35.72;8.20;;;10.60;99.90;;;;;;4883558;29;20053;-77
2024/01/22 10:45:07;;;;;;;37.05;8.77;;;10.60;99.90;;;;;;4846717;29;20113;-77
2024/01/22 10:47:34;;;;;;;35.78;9.45;;;10.60;99.90;;;;;;4842630;29;20114;-78
2024/01/22 10:50:02;;;;;;;37.53;8.70;;;10.60;99.90;;;;;;4835286;29;20510;-79
2024/01/22 10:52:29;;;;;;;38.13;9.30;;;10.60;99.90;;;;;;4879871;29;20046;-80
2024/01/22 10:54:55;;;;;;;37.38;9.10;;;10.60;99.90;;;;;;4844561;29;20082;-79
2024/01/22 10:57:39;;;;;;;36.88;8.93;;;10.60;99.90;;;;;;4837924;29;20080;-79
2024/01/22 11:00:07;;;;;;;39.65;9.27;;;10.60;99.90;;;;;;4841520;29;20098;-79
2024/01/22 11:02:35;;;;;;;38.25;9.23;;;10.50;99.90;;;;;;4849106;29;20138;-78
2024/01/22 11:05:14;;;;;;;40.85;9.68;;;10.50;99.90;;;;;;4876743;29;20535;-78
2024/01/22 11:07:41;;;;;;;40.55;8.90;;;10.50;99.90;;;;;;4861121;29;20060;-78
2024/01/22 11:10:12;;;;;;;41.40;9.45;;;10.50;99.90;;;;;;4842475;29;20049;-79
2024/01/22 11:12:51;;;;;;;35.22;8.63;;;10.40;99.90;;;;;;4849813;29;20098;-78
2024/01/22 11:15:16;;;;;;;39.03;9.27;;;10.40;99.90;;;;;;4871194;29;20049;-78
2024/01/22 11:17:43;;;;;;;34.33;8.82;;;10.40;99.90;;;;;;4853110;29;20231;-78
2024/01/22 11:20:20;;;;;;;39.83;9.32;;;10.40;99.90;;;;;;4845728;29;20084;-78
2024/01/22 11:23:04;;;;;;;35.28;8.52;;;10.50;99.90;;;;;;4856436;29;20049;-78
2024/01/22 11:25:30;;;;;;;36.22;8.85;;;10.50;99.90;;;;;;4844665;29;20613;-78
2024/01/22 11:28:03;;;;;;;39.00;9.43;;;10.60;99.90;;;;;;4843178;29;20125;-77
2024/01/22 11:30:35;;;;;;;38.13;9.15;;;10.60;99.90;;;;;;4843560;29;20052;-77
2024/01/22 11:33:00;;;;;;;38.25;8.98;;;10.60;99.90;;;;;;4851677;29;20495;-77
2024/01/22 11:35:44;;;;;;;31.40;8.27;;;10.60;99.90;;;;;;4853056;29;20038;-79
2024/01/22 11:38:14;;;;;;;37.55;8.82;;;10.70;99.90;;;;;;4859452;29;20049;-78
2024/01/22 11:40:54;;;;;;;38.55;9.20;;;10.70;99.90;;;;;;4852112;29;20053;-78
2024/01/22 11:43:21;;;;;;;34.67;8.25;;;10.70;99.90;;;;;;4864424;29;20106;-80
2024/01/22 11:45:56;;;;;;;33.58;8.32;;;10.70;99.90;;;;;;4854294;29;20115;-80
2024/01/22 11:48:24;;;;;;;38.38;8.77;;;10.70;99.90;;;;;;4848511;29;20129;-79
2024/01/22 11:51:04;;;;;;;38.75;8.93;;;10.70;99.90;;;;;;4851580;29;20053;-91
2024/01/22 11:53:31;;;;;;;39.65;8.85;;;10.60;99.90;;;;;;4857505;29;20457;-90
2024/01/22 11:56:01;;;;;;;35.90;8.50;;;10.60;99.90;;;;;;4849567;29;20054;-89
2024/01/22 11:58:31;;;;;;;30.38;7.57;;;10.60;99.90;;;;;;4850295;29;20470;-85
2024/01/22 12:01:03;;;;;;;30.70;8.23;;;10.60;99.90;;;;;;4854319;29;20049;-86
2024/01/22 12:03:29;;;;;;;29.42;7.82;;;10.60;99.90;;;;;;4876477;29;20376;-85
2024/01/22 12:06:03;;;;;;;33.17;7.57;;;10.60;99.90;;;;;;4847225;29;20057;-80
2024/01/22 12:08:28;;;;;;;30.60;7.55;;;10.70;99.90;;;;;;4887867;29;20480;-79
2024/01/22 12:11:13;;;;;;;28.25;7.60;;;10.60;99.90;;;;;;4861796;29;20104;-78
2024/01/22 12:13:43;;;;;;;36.08;8.13;;;10.60;99.90;;;;;;4859771;29;20069;-80
2024/01/22 12:16:19;;;;;;;30.50;7.55;;;10.60;99.90;;;;;;4842957;29;20042;-78
2024/01/22 12:18:45;;;;;;;27.80;6.93;;;10.50;99.90;;;;;;4851457;29;20133;-80
2024/01/22 12:21:12;;;;;;;28.95;7.05;;;10.50;99.90;;;;;;4872570;29;20090;-88
2024/01/22 12:23:39;;;;;;;31.17;7.30;;;10.50;99.90;;;;;;4844513;29;20517;-79
2024/01/22 12:26:13;;;;;;;26.70;7.57;;;10.40;99.90;;;;;;4851922;29;20057;-75
2024/01/22 12:28:39;;;;;;;29.48;6.72;;;10.40;99.90;;;;;;4883096;29;20053;-77
2024/01/22 12:31:05;;;;;;;29.33;7.07;;;10.50;99.90;;;;;;4840150;29;20072;-78
2024/01/22 12:33:32;;;;;;;28.17;7.32;;;10.50;99.90;;;;;;4837859;29;20053;-78
2024/01/22 12:36:08;;;;;;;27.98;6.53;;;10.60;99.90;;;;;;4832831;29;20102;-77
2024/01/22 12:38:38;;;;;;;29.67;7.05;;;10.60;99.90;;;;;;4869437;29;20050;-77
2024/01/22 12:41:08;;;;;;;29.15;7.30;;;10.50;99.90;;;;;;4864227;29;20082;-77
2024/01/22 12:43:36;;;;;;;26.58;6.50;;;10.50;99.90;;;;;;4856336;29;20057;-78
2024/01/22 12:46:10;;;;;;;28.45;7.25;;;10.50;99.90;;;;;;4851965;29;20792;-77